This is the latest recevied weather packets stored in our database for station/object IK4PKL-13. If no packets are shown the sender has not sent any weather packets the latest 10 day(s).
| Time | Temp. | Humidity | Pressure | Rain* | Wind** | Luminosity | Snow |
|---|---|---|---|---|---|---|---|
| 1776950719 | 18.33° C | 33% | 1024.7 hPa | 0 mm | - | 545 W/m² | - |
| 1776950144 | 18.89° C | 33% | 1024.9 hPa | 0 mm | - | 564 W/m² | - |
| 1776945327 | 17.22° C | 40% | 1025.9 hPa | 0 mm | - | 630 W/m² | - |
| 1776944736 | 17.22° C | 40% | 1025.9 hPa | 0 mm | - | 656 W/m² | - |
| 1776944144 | 17.22° C | 39% | 1026 hPa | 0 mm | - | 664 W/m² | - |
| 1776938128 | 16.11° C | 52% | 1026.9 hPa | 0 mm | - | 624 W/m² | - |
| 1776936944 | 16.11° C | 53% | 1027 hPa | 0 mm | - | 600 W/m² | - |
| 1776935135 | 16.11° C | 56% | 1027 hPa | 0 mm | - | 553 W/m² | - |
| 1776927344 | 12.22° C | 67% | 1027.3 hPa | 0 mm | - | 259 W/m² | - |
| 1776924335 | 10° C | 76% | 1027 hPa | 0 mm | - | 138 W/m² | - |
| 1776922545 | 7.22° C | 83% | 1026.9 hPa | 0 mm | - | 80 W/m² | - |
| 1776920144 | 6.11° C | 86% | 1026.7 hPa | 0 mm | - | 27 W/m² | - |
| 1776919535 | 5.56° C | 86% | 1026.6 hPa | 0 mm | - | 18 W/m² | - |
| 1776912964 | 6.11° C | 85% | 1026 hPa | 0 mm | - | 0 W/m² | - |
| 1776909940 | 5.56° C | 86% | 1026.1 hPa | 0 mm | - | 0 W/m² | - |
| 1776907519 | 6.67° C | 84% | 1026.1 hPa | 0 mm | - | 0 W/m² | - |
| 1776905744 | 6.67° C | 83% | 1026 hPa | 0 mm | - | 0 W/m² | - |
| 1776897919 | 7.22° C | 85% | 1026.1 hPa | 0 mm | - | 0 W/m² | - |
| 1776895519 | 7.78° C | 83% | 1025.4 hPa | 0 mm | - | 0 W/m² | - |
| 1776889519 | 9.44° C | 78% | 1024.5 hPa | 0 mm | - | 0 W/m² | - |
| 1776888337 | 10° C | 76% | 1024.4 hPa | 0 mm | - | 0 W/m² | - |
| 1776882320 | 13.33° C | 59% | 1023.4 hPa | 0 mm | - | 0 W/m² | - |
| 1776877521 | 15° C | 52% | 1022.9 hPa | 0 mm | - | 34 W/m² | - |
| 1776876944 | 15° C | 50% | 1022.9 hPa | 0 mm | - | 63 W/m² | - |
* Rain latest hour (hover to see other rain measurements)
** Current wind speed in m/s (hover to see current wind gust speed)